sensor_id;sensor_type;location;lat;lon;timestamp;pressure;altitude;pressure_sealevel;temperature;humidity
21234;BME280;10774;42.178;26.578;2023-04-21T00:00:51;99655.78;;;12.91;100.00
21234;BME280;10774;42.178;26.578;2023-04-21T00:03:18;99658.09;;;12.73;100.00
21234;BME280;10774;42.178;26.578;2023-04-21T00:05:48;99638.88;;;12.66;100.00
21234;BME280;10774;42.178;26.578;2023-04-21T00:08:14;99646.63;;;12.82;100.00
21234;BME280;10774;42.178;26.578;2023-04-21T00:10:40;99647.22;;;12.97;100.00
21234;BME280;10774;42.178;26.578;2023-04-21T00:13:05;99628.28;;;12.98;100.00
21234;BME280;10774;42.178;26.578;2023-04-21T00:15:31;99623.88;;;12.97;100.00
21234;BME280;10774;42.178;26.578;2023-04-21T00:17:57;99636.34;;;13.09;100.00
21234;BME280;10774;42.178;26.578;2023-04-21T00:20:24;99624.94;;;12.95;100.00
21234;BME280;10774;42.178;26.578;2023-04-21T00:22:53;99620.78;;;13.02;100.00
21234;BME280;10774;42.178;26.578;2023-04-21T00:25:18;99620.81;;;13.13;100.00
21234;BME280;10774;42.178;26.578;2023-04-21T00:27:44;99612.84;;;13.00;100.00
21234;BME280;10774;42.178;26.578;2023-04-21T00:30:10;99621.91;;;12.99;100.00
21234;BME280;10774;42.178;26.578;2023-04-21T00:32:35;99629.53;;;12.59;100.00
21234;BME280;10774;42.178;26.578;2023-04-21T00:35:01;99636.91;;;11.98;100.00
21234;BME280;10774;42.178;26.578;2023-04-21T00:37:26;99640.63;;;11.71;100.00
21234;BME280;10774;42.178;26.578;2023-04-21T00:39:51;99632.09;;;12.14;100.00
21234;BME280;10774;42.178;26.578;2023-04-21T00:42:17;99615.69;;;12.17;100.00
21234;BME280;10774;42.178;26.578;2023-04-21T00:44:43;99615.69;;;12.17;100.00
21234;BME280;10774;42.178;26.578;2023-04-21T00:47:08;99601.50;;;12.15;100.00
21234;BME280;10774;42.178;26.578;2023-04-21T00:49:34;99616.03;;;12.37;100.00
21234;BME280;10774;42.178;26.578;2023-04-21T00:51:59;99604.06;;;12.41;100.00
21234;BME280;10774;42.178;26.578;2023-04-21T00:54:25;99609.44;;;12.41;100.00
21234;BME280;10774;42.178;26.578;2023-04-21T00:56:51;99601.59;;;12.49;100.00
21234;BME280;10774;42.178;26.578;2023-04-21T00:59:17;99623.56;;;12.55;100.00
21234;BME280;10774;42.178;26.578;2023-04-21T01:01:42;99586.31;;;12.03;100.00
21234;BME280;10774;42.178;26.578;2023-04-21T01:04:08;99613.94;;;11.81;100.00
21234;BME280;10774;42.178;26.578;2023-04-21T01:06:34;99613.84;;;11.83;100.00
21234;BME280;10774;42.178;26.578;2023-04-21T01:09:00;99587.22;;;11.54;100.00
21234;BME280;10774;42.178;26.578;2023-04-21T01:11:28;99612.53;;;11.75;100.00
21234;BME280;10774;42.178;26.578;2023-04-21T01:13:54;99606.63;;;11.83;100.00
21234;BME280;10774;42.178;26.578;2023-04-21T01:16:20;99594.88;;;11.60;100.00
21234;BME280;10774;42.178;26.578;2023-04-21T01:18:47;99602.94;;;11.60;100.00
21234;BME280;10774;42.178;26.578;2023-04-21T01:21:12;99609.22;;;11.72;100.00
21234;BME280;10774;42.178;26.578;2023-04-21T01:23:42;99604.47;;;11.51;100.00
21234;BME280;10774;42.178;26.578;2023-04-21T01:26:08;99588.72;;;11.34;100.00
21234;BME280;10774;42.178;26.578;2023-04-21T01:28:33;99595.88;;;10.97;100.00
21234;BME280;10774;42.178;26.578;2023-04-21T01:30:59;99616.94;;;10.78;100.00
21234;BME280;10774;42.178;26.578;2023-04-21T01:33:25;99621.84;;;10.96;100.00
21234;BME280;10774;42.178;26.578;2023-04-21T01:35:51;99611.00;;;10.60;100.00
21234;BME280;10774;42.178;26.578;2023-04-21T01:38:16;99619.16;;;10.45;100.00
21234;BME280;10774;42.178;26.578;2023-04-21T01:40:48;99619.91;;;10.35;100.00
21234;BME280;10774;42.178;26.578;2023-04-21T01:43:17;99627.03;;;10.87;100.00
21234;BME280;10774;42.178;26.578;2023-04-21T01:45:43;99613.47;;;10.76;100.00
21234;BME280;10774;42.178;26.578;2023-04-21T01:48:09;99599.50;;;10.96;100.00
21234;BME280;10774;42.178;26.578;2023-04-21T01:50:34;99621.44;;;10.90;100.00
21234;BME280;10774;42.178;26.578;2023-04-21T01:53:00;99630.22;;;11.17;100.00
21234;BME280;10774;42.178;26.578;2023-04-21T01:55:25;99626.94;;;11.38;100.00
21234;BME280;10774;42.178;26.578;2023-04-21T01:57:51;99606.28;;;11.51;100.00
21234;BME280;10774;42.178;26.578;2023-04-21T02:00:16;99600.25;;;11.60;100.00
21234;BME280;10774;42.178;26.578;2023-04-21T02:02:42;99608.13;;;11.74;100.00
21234;BME280;10774;42.178;26.578;2023-04-21T02:05:07;99591.16;;;11.74;100.00
21234;BME280;10774;42.178;26.578;2023-04-21T02:07:33;99596.59;;;11.61;100.00
21234;BME280;10774;42.178;26.578;2023-04-21T02:09:58;99575.97;;;11.49;100.00
21234;BME280;10774;42.178;26.578;2023-04-21T02:12:24;99555.28;;;11.62;100.00
21234;BME280;10774;42.178;26.578;2023-04-21T02:14:49;99575.97;;;11.49;100.00
21234;BME280;10774;42.178;26.578;2023-04-21T02:17:15;99580.53;;;11.36;100.00
21234;BME280;10774;42.178;26.578;2023-04-21T02:19:41;99592.72;;;11.29;100.00
21234;BME280;10774;42.178;26.578;2023-04-21T02:22:07;99577.53;;;11.27;100.00
21234;BME280;10774;42.178;26.578;2023-04-21T02:24:33;99559.03;;;11.36;100.00
21234;BME280;10774;42.178;26.578;2023-04-21T02:27:00;99570.84;;;11.46;100.00
21234;BME280;10774;42.178;26.578;2023-04-21T02:29:26;99572.53;;;11.47;100.00
21234;BME280;10774;42.178;26.578;2023-04-21T02:31:51;99567.16;;;11.47;100.00
21234;BME280;10774;42.178;26.578;2023-04-21T02:34:17;99579.88;;;11.45;100.00
21234;BME280;10774;42.178;26.578;2023-04-21T02:36:42;99576.22;;;11.46;100.00
21234;BME280;10774;42.178;26.578;2023-04-21T02:39:08;99568.34;;;11.06;100.00
21234;BME280;10774;42.178;26.578;2023-04-21T02:41:33;99577.69;;;11.13;100.00
21234;BME280;10774;42.178;26.578;2023-04-21T02:43:58;99581.44;;;11.23;100.00
21234;BME280;10774;42.178;26.578;2023-04-21T02:46:24;99591.97;;;11.01;100.00
21234;BME280;10774;42.178;26.578;2023-04-21T02:48:50;99594.81;;;10.61;100.00
21234;BME280;10774;42.178;26.578;2023-04-21T02:51:15;99574.06;;;10.38;100.00
21234;BME280;10774;42.178;26.578;2023-04-21T02:53:41;99571.28;;;10.52;100.00
21234;BME280;10774;42.178;26.578;2023-04-21T02:56:07;99578.25;;;10.80;100.00
21234;BME280;10774;42.178;26.578;2023-04-21T02:58:36;99588.47;;;10.88;100.00
21234;BME280;10774;42.178;26.578;2023-04-21T03:01:02;99586.00;;;10.72;100.00
21234;BME280;10774;42.178;26.578;2023-04-21T03:03:29;99575.25;;;10.59;100.00
21234;BME280;10774;42.178;26.578;2023-04-21T03:06:02;99587.94;;;10.83;100.00
21234;BME280;10774;42.178;26.578;2023-04-21T03:08:28;99593.59;;;10.91;100.00
21234;BME280;10774;42.178;26.578;2023-04-21T03:10:55;99603.16;;;10.95;100.00
21234;BME280;10774;42.178;26.578;2023-04-21T03:13:20;99585.38;;;10.81;100.00
21234;BME280;10774;42.178;26.578;2023-04-21T03:15:46;99596.28;;;10.91;100.00
21234;BME280;10774;42.178;26.578;2023-04-21T03:18:12;99593.06;;;10.86;100.00
21234;BME280;10774;42.178;26.578;2023-04-21T03:20:37;99586.00;;;10.85;100.00
21234;BME280;10774;42.178;26.578;2023-04-21T03:23:03;99591.47;;;10.83;100.00
21234;BME280;10774;42.178;26.578;2023-04-21T03:25:28;99587.94;;;10.83;100.00
21234;BME280;10774;42.178;26.578;2023-04-21T03:27:54;99595.44;;;11.03;100.00
21234;BME280;10774;42.178;26.578;2023-04-21T03:30:20;99593.28;;;11.08;100.00
21234;BME280;10774;42.178;26.578;2023-04-21T03:32:46;99592.44;;;11.08;100.00
21234;BME280;10774;42.178;26.578;2023-04-21T03:35:11;99588.44;;;11.00;100.00
21234;BME280;10774;42.178;26.578;2023-04-21T03:37:37;99578.34;;;11.04;100.00
21234;BME280;10774;42.178;26.578;2023-04-21T03:40:03;99589.19;;;11.15;100.00
21234;BME280;10774;42.178;26.578;2023-04-21T03:42:33;99596.25;;;11.29;100.00
21234;BME280;10774;42.178;26.578;2023-04-21T03:45:05;99595.66;;;11.13;100.00
21234;BME280;10774;42.178;26.578;2023-04-21T03:47:31;99581.16;;;11.03;100.00
21234;BME280;10774;42.178;26.578;2023-04-21T03:49:57;99591.34;;;11.10;100.00
21234;BME280;10774;42.178;26.578;2023-04-21T03:52:23;99597.97;;;11.17;100.00
21234;BME280;10774;42.178;26.578;2023-04-21T03:54:48;99594.75;;;11.25;100.00
21234;BME280;10774;42.178;26.578;2023-04-21T03:57:14;99583.00;;;11.02;100.00
21234;BME280;10774;42.178;26.578;2023-04-21T03:59:40;99582.06;;;11.27;100.00
21234;BME280;10774;42.178;26.578;2023-04-21T04:02:05;99580.38;;;11.13;100.00
21234;BME280;10774;42.178;26.578;2023-04-21T04:04:31;99605.09;;;11.18;100.00
21234;BME280;10774;42.178;26.578;2023-04-21T04:06:56;99617.19;;;11.37;100.00
21234;BME280;10774;42.178;26.578;2023-04-21T04:09:22;99610.00;;;11.24;100.00
21234;BME280;10774;42.178;26.578;2023-04-21T04:11:48;99615.47;;;11.23;100.00
21234;BME280;10774;42.178;26.578;2023-04-21T04:14:14;99605.84;;;11.57;100.00
21234;BME280;10774;42.178;26.578;2023-04-21T04:16:39;99598.09;;;11.65;100.00
21234;BME280;10774;42.178;26.578;2023-04-21T04:19:05;99588.66;;;11.47;100.00
21234;BME280;10774;42.178;26.578;2023-04-21T04:21:31;99603.88;;;11.59;100.00
21234;BME280;10774;42.178;26.578;2023-04-21T04:23:56;99613.75;;;11.71;100.00
21234;BME280;10774;42.178;26.578;2023-04-21T04:26:23;99605.88;;;11.44;100.00
21234;BME280;10774;42.178;26.578;2023-04-21T04:28:50;99600.31;;;11.35;100.00
21234;BME280;10774;42.178;26.578;2023-04-21T04:31:15;99599.69;;;11.31;100.00
21234;BME280;10774;42.178;26.578;2023-04-21T04:33:41;99609.00;;;11.38;100.00
21234;BME280;10774;42.178;26.578;2023-04-21T04:36:07;99626.81;;;11.52;100.00
21234;BME280;10774;42.178;26.578;2023-04-21T04:38:32;99631.88;;;11.44;100.00
21234;BME280;10774;42.178;26.578;2023-04-21T04:41:02;99636.25;;;11.58;100.00
21234;BME280;10774;42.178;26.578;2023-04-21T04:43:27;99634.44;;;11.58;100.00
21234;BME280;10774;42.178;26.578;2023-04-21T04:45:53;99638.91;;;11.70;100.00
21234;BME280;10774;42.178;26.578;2023-04-21T04:48:18;99617.38;;;11.70;100.00
21234;BME280;10774;42.178;26.578;2023-04-21T04:50:44;99626.75;;;11.77;100.00
21234;BME280;10774;42.178;26.578;2023-04-21T04:53:10;99628.94;;;11.96;100.00
21234;BME280;10774;42.178;26.578;2023-04-21T04:55:35;99630.69;;;11.97;100.00
21234;BME280;10774;42.178;26.578;2023-04-21T04:58:01;99630.44;;;12.00;100.00
21234;BME280;10774;42.178;26.578;2023-04-21T05:00:27;99630.75;;;11.96;100.00
21234;BME280;10774;42.178;26.578;2023-04-21T05:02:53;99614.53;;;11.97;100.00
21234;BME280;10774;42.178;26.578;2023-04-21T05:05:18;99615.59;;;12.19;100.00
21234;BME280;10774;42.178;26.578;2023-04-21T05:07:46;99622.50;;;12.34;100.00
21234;BME280;10774;42.178;26.578;2023-04-21T05:10:12;99625.78;;;12.26;100.00
21234;BME280;10774;42.178;26.578;2023-04-21T05:12:37;99614.78;;;12.29;100.00
21234;BME280;10774;42.178;26.578;2023-04-21T05:15:04;99632.31;;;12.46;100.00
21234;BME280;10774;42.178;26.578;2023-04-21T05:17:32;99631.03;;;12.74;100.00
21234;BME280;10774;42.178;26.578;2023-04-21T05:19:57;99634.00;;;12.82;100.00
21234;BME280;10774;42.178;26.578;2023-04-21T05:22:23;99628.28;;;12.98;100.00
21234;BME280;10774;42.178;26.578;2023-04-21T05:24:48;99629.78;;;13.25;100.00
21234;BME280;10774;42.178;26.578;2023-04-21T05:27:13;99627.41;;;13.20;100.00
21234;BME280;10774;42.178;26.578;2023-04-21T05:29:39;99625.75;;;13.30;100.00
21234;BME280;10774;42.178;26.578;2023-04-21T05:32:04;99621.78;;;13.57;100.00
21234;BME280;10774;42.178;26.578;2023-04-21T05:34:30;99629.72;;;13.70;100.00
21234;BME280;10774;42.178;26.578;2023-04-21T05:36:56;99622.22;;;13.84;100.00
21234;BME280;10774;42.178;26.578;2023-04-21T05:39:21;99630.53;;;13.93;100.00
21234;BME280;10774;42.178;26.578;2023-04-21T05:41:46;99625.38;;;13.90;100.00
21234;BME280;10774;42.178;26.578;2023-04-21T05:44:12;99631.50;;;14.03;100.00
21234;BME280;10774;42.178;26.578;2023-04-21T05:46:37;99615.25;;;13.71;100.00
21234;BME280;10774;42.178;26.578;2023-04-21T05:49:03;99610.91;;;13.91;100.00
21234;BME280;10774;42.178;26.578;2023-04-21T05:51:28;99622.28;;;14.05;100.00
21234;BME280;10774;42.178;26.578;2023-04-21T05:53:54;99610.75;;;14.03;100.00
21234;BME280;10774;42.178;26.578;2023-04-21T05:56:19;99605.38;;;14.03;100.00
21234;BME280;10774;42.178;26.578;2023-04-21T05:58:45;99611.94;;;14.10;100.00
21234;BME280;10774;42.178;26.578;2023-04-21T06:01:11;99598.16;;;13.93;100.00
21234;BME280;10774;42.178;26.578;2023-04-21T06:03:37;99592.78;;;13.93;100.00
21234;BME280;10774;42.178;26.578;2023-04-21T06:06:04;99591.41;;;13.98;100.00
21234;BME280;10774;42.178;26.578;2023-04-21T06:08:30;99593.34;;;13.96;100.00
21234;BME280;10774;42.178;26.578;2023-04-21T06:10:56;99606.72;;;13.98;100.00
21234;BME280;10774;42.178;26.578;2023-04-21T06:13:21;99591.63;;;13.95;100.00
21234;BME280;10774;42.178;26.578;2023-04-21T06:15:46;99595.47;;;13.93;100.00
21234;BME280;10774;42.178;26.578;2023-04-21T06:18:12;99584.19;;;13.88;100.00
21234;BME280;10774;42.178;26.578;2023-04-21T06:20:37;99592.41;;;14.18;100.00
21234;BME280;10774;42.178;26.578;2023-04-21T06:23:05;99584.97;;;14.31;100.00
21234;BME280;10774;42.178;26.578;2023-04-21T06:25:30;99593.09;;;14.31;100.00
21234;BME280;10774;42.178;26.578;2023-04-21T06:27:55;99605.94;;;14.60;100.00
21234;BME280;10774;42.178;26.578;2023-04-21T06:30:21;99605.03;;;14.71;100.00
21234;BME280;10774;42.178;26.578;2023-04-21T06:32:46;99595.69;;;14.75;100.00
21234;BME280;10774;42.178;26.578;2023-04-21T06:35:13;99611.06;;;15.05;100.00
21234;BME280;10774;42.178;26.578;2023-04-21T06:37:42;99607.50;;;15.04;100.00
21234;BME280;10774;42.178;26.578;2023-04-21T06:40:08;99601.69;;;15.09;100.00
21234;BME280;10774;42.178;26.578;2023-04-21T06:42:33;99596.38;;;14.98;100.00
21234;BME280;10774;42.178;26.578;2023-04-21T06:44:59;99592.50;;;15.21;100.00
21234;BME280;10774;42.178;26.578;2023-04-21T06:47:24;99592.94;;;15.76;100.00
21234;BME280;10774;42.178;26.578;2023-04-21T06:49:50;99603.53;;;16.18;100.00
21234;BME280;10774;42.178;26.578;2023-04-21T06:52:15;99608.97;;;16.47;100.00
21234;BME280;10774;42.178;26.578;2023-04-21T06:54:41;99594.09;;;16.61;100.00
21234;BME280;10774;42.178;26.578;2023-04-21T06:57:06;99595.25;;;16.87;100.00
21234;BME280;10774;42.178;26.578;2023-04-21T06:59:32;99596.34;;;16.94;100.00
21234;BME280;10774;42.178;26.578;2023-04-21T07:01:58;99595.84;;;16.62;100.00
21234;BME280;10774;42.178;26.578;2023-04-21T07:04:24;99598.22;;;16.84;98.87
21234;BME280;10774;42.178;26.578;2023-04-21T07:06:54;99599.66;;;16.69;99.22
21234;BME280;10774;42.178;26.578;2023-04-21T07:09:20;99597.97;;;16.68;100.00
21234;BME280;10774;42.178;26.578;2023-04-21T07:11:45;99581.97;;;16.84;99.14
21234;BME280;10774;42.178;26.578;2023-04-21T07:14:11;99580.53;;;16.70;97.48
21234;BME280;10774;42.178;26.578;2023-04-21T07:16:36;99595.09;;;16.60;99.94
21234;BME280;10774;42.178;26.578;2023-04-21T07:19:02;99592.13;;;16.72;100.00
21234;BME280;10774;42.178;26.578;2023-04-21T07:21:27;99594.69;;;16.55;98.15
21234;BME280;10774;42.178;26.578;2023-04-21T07:23:55;99587.69;;;16.62;97.69
21234;BME280;10774;42.178;26.578;2023-04-21T07:26:20;99560.38;;;16.36;98.93
21234;BME280;10774;42.178;26.578;2023-04-21T07:28:45;99580.44;;;16.24;100.00
21234;BME280;10774;42.178;26.578;2023-04-21T07:31:11;99589.69;;;16.50;100.00
21234;BME280;10774;42.178;26.578;2023-04-21T07:33:36;99589.81;;;16.68;100.00
21234;BME280;10774;42.178;26.578;2023-04-21T07:36:02;99582.69;;;16.77;99.83
21234;BME280;10774;42.178;26.578;2023-04-21T07:38:27;99591.09;;;16.64;100.00
21234;BME280;10774;42.178;26.578;2023-04-21T07:40:52;99556.72;;;16.64;99.81
21234;BME280;10774;42.178;26.578;2023-04-21T07:43:18;99585.19;;;16.97;99.85
21234;BME280;10774;42.178;26.578;2023-04-21T07:45:44;99578.16;;;16.77;99.00
21234;BME280;10774;42.178;26.578;2023-04-21T07:48:10;99581.28;;;16.72;100.00
21234;BME280;10774;42.178;26.578;2023-04-21T07:50:48;99575.75;;;17.02;100.00
21234;BME280;10774;42.178;26.578;2023-04-21T07:53:14;99580.97;;;17.22;98.84
21234;BME280;10774;42.178;26.578;2023-04-21T07:55:40;99595.91;;;17.36;100.00
21234;BME280;10774;42.178;26.578;2023-04-21T07:58:05;99583.03;;;17.38;99.18
21234;BME280;10774;42.178;26.578;2023-04-21T08:00:31;99590.47;;;17.36;97.14
21234;BME280;10774;42.178;26.578;2023-04-21T08:02:56;99587.66;;;17.28;99.32
21234;BME280;10774;42.178;26.578;2023-04-21T08:05:22;99580.34;;;17.01;100.00
21234;BME280;10774;42.178;26.578;2023-04-21T08:07:47;99592.75;;;17.41;99.87
21234;BME280;10774;42.178;26.578;2023-04-21T08:10:12;99581.84;;;17.13;100.00
21234;BME280;10774;42.178;26.578;2023-04-21T08:12:38;99583.44;;;17.16;99.14
21234;BME280;10774;42.178;26.578;2023-04-21T08:15:03;99588.38;;;16.93;97.98
21234;BME280;10774;42.178;26.578;2023-04-21T08:17:32;99581.81;;;17.23;95.35
21234;BME280;10774;42.178;26.578;2023-04-21T08:19:58;99593.88;;;17.11;94.60
21234;BME280;10774;42.178;26.578;2023-04-21T08:22:23;99601.41;;;17.17;91.09
21234;BME280;10774;42.178;26.578;2023-04-21T08:24:49;99574.44;;;17.43;90.48
21234;BME280;10774;42.178;26.578;2023-04-21T08:27:14;99583.19;;;18.10;85.96
21234;BME280;10774;42.178;26.578;2023-04-21T08:29:39;99587.13;;;17.97;85.86
21234;BME280;10774;42.178;26.578;2023-04-21T08:32:05;99577.50;;;18.39;81.97
21234;BME280;10774;42.178;26.578;2023-04-21T08:34:30;99567.41;;;18.31;81.19
21234;BME280;10774;42.178;26.578;2023-04-21T08:36:56;99574.38;;;18.34;78.39
21234;BME280;10774;42.178;26.578;2023-04-21T08:39:21;99587.38;;;18.22;78.92
21234;BME280;10774;42.178;26.578;2023-04-21T08:41:46;99572.69;;;17.79;83.72
21234;BME280;10774;42.178;26.578;2023-04-21T08:44:12;99571.44;;;17.91;82.40
21234;BME280;10774;42.178;26.578;2023-04-21T08:46:38;99580.53;;;18.18;79.80
21234;BME280;10774;42.178;26.578;2023-04-21T08:49:04;99559.75;;;18.09;78.07
21234;BME280;10774;42.178;26.578;2023-04-21T08:51:30;99544.66;;;18.32;75.65
21234;BME280;10774;42.178;26.578;2023-04-21T08:53:56;99561.09;;;18.48;76.88
21234;BME280;10774;42.178;26.578;2023-04-21T08:56:25;99567.84;;;18.44;76.90
21234;BME280;10774;42.178;26.578;2023-04-21T08:58:51;99578.34;;;18.39;77.28
21234;BME280;10774;42.178;26.578;2023-04-21T09:01:16;99571.06;;;18.22;74.04
21234;BME280;10774;42.178;26.578;2023-04-21T09:03:42;99569.88;;;18.42;71.55
21234;BME280;10774;42.178;26.578;2023-04-21T09:06:08;99571.28;;;18.28;72.29
21234;BME280;10774;42.178;26.578;2023-04-21T09:08:37;99574.31;;;18.43;70.83
21234;BME280;10774;42.178;26.578;2023-04-21T09:11:04;99568.34;;;18.66;71.32
21234;BME280;10774;42.178;26.578;2023-04-21T09:13:36;99568.81;;;18.35;70.92
21234;BME280;10774;42.178;26.578;2023-04-21T09:16:03;99566.72;;;18.29;73.21
21234;BME280;10774;42.178;26.578;2023-04-21T09:18:30;99546.16;;;18.26;73.86
21234;BME280;10774;42.178;26.578;2023-04-21T09:23:51;99553.50;;;18.34;73.68
21234;BME280;10774;42.178;26.578;2023-04-21T09:26:19;99547.22;;;18.51;72.08
21234;BME280;10774;42.178;26.578;2023-04-21T09:28:48;99550.72;;;18.88;69.33
21234;BME280;10774;42.178;26.578;2023-04-21T09:33:51;99534.94;;;18.29;71.97
21234;BME280;10774;42.178;26.578;2023-04-21T09:36:24;99535.84;;;18.74;71.18
21234;BME280;10774;42.178;26.578;2023-04-21T09:41:19;99526.44;;;18.94;67.01
21234;BME280;10774;42.178;26.578;2023-04-21T09:43:46;99526.00;;;19.57;64.82
21234;BME280;10774;42.178;26.578;2023-04-21T09:46:12;99531.19;;;19.85;62.85
21234;BME280;10774;42.178;26.578;2023-04-21T09:48:42;99521.47;;;18.64;67.04
21234;BME280;10774;42.178;26.578;2023-04-21T09:51:12;99525.94;;;18.47;69.01
21234;BME280;10774;42.178;26.578;2023-04-21T09:53:39;99533.16;;;18.38;62.46
21234;BME280;10774;42.178;26.578;2023-04-21T09:56:10;99511.31;;;18.22;59.95
21234;BME280;10774;42.178;26.578;2023-04-21T09:58:40;99514.66;;;19.28;58.38
21234;BME280;10774;42.178;26.578;2023-04-21T10:01:08;99520.28;;;19.69;56.48
21234;BME280;10774;42.178;26.578;2023-04-21T10:03:37;99510.97;;;20.36;53.78
21234;BME280;10774;42.178;26.578;2023-04-21T10:06:04;99502.94;;;20.43;53.48
21234;BME280;10774;42.178;26.578;2023-04-21T10:08:29;99489.69;;;20.48;52.78
21234;BME280;10774;42.178;26.578;2023-04-21T10:10:56;99498.38;;;19.36;55.84
21234;BME280;10774;42.178;26.578;2023-04-21T10:13:22;99486.00;;;18.99;53.46
21234;BME280;10774;42.178;26.578;2023-04-21T10:16:03;99498.81;;;19.15;55.12
21234;BME280;10774;42.178;26.578;2023-04-21T10:18:29;99484.97;;;19.00;53.61
21234;BME280;10774;42.178;26.578;2023-04-21T10:21:09;99483.44;;;19.48;53.99
21234;BME280;10774;42.178;26.578;2023-04-21T10:23:41;99480.81;;;20.22;51.66
21234;BME280;10774;42.178;26.578;2023-04-21T10:26:15;99488.28;;;20.03;51.63
21234;BME280;10774;42.178;26.578;2023-04-21T10:33:41;99483.94;;;18.93;53.49
21234;BME280;10774;42.178;26.578;2023-04-21T10:36:10;99488.66;;;19.25;53.05
21234;BME280;10774;42.178;26.578;2023-04-21T10:38:41;99458.66;;;19.76;51.53
21234;BME280;10774;42.178;26.578;2023-04-21T10:41:25;99489.16;;;20.53;51.18
21234;BME280;10774;42.178;26.578;2023-04-21T10:43:52;99470.88;;;20.45;49.50
21234;BME280;10774;42.178;26.578;2023-04-21T10:46:37;99491.66;;;20.71;49.42
21234;BME280;10774;42.178;26.578;2023-04-21T10:49:08;99488.38;;;20.92;49.66
21234;BME280;10774;42.178;26.578;2023-04-21T10:54:43;99484.00;;;20.74;49.36
21234;BME280;10774;42.178;26.578;2023-04-21T10:57:31;99474.31;;;20.39;50.44
21234;BME280;10774;42.178;26.578;2023-04-21T10:59:57;99495.94;;;20.73;51.42
21234;BME280;10774;42.178;26.578;2023-04-21T11:02:23;99475.03;;;21.44;50.26
21234;BME280;10774;42.178;26.578;2023-04-21T11:04:52;99507.31;;;18.78;55.84
21234;BME280;10774;42.178;26.578;2023-04-21T11:07:19;99505.97;;;19.16;58.81
21234;BME280;10774;42.178;26.578;2023-04-21T11:09:46;99506.56;;;18.68;60.37
21234;BME280;10774;42.178;26.578;2023-04-21T11:12:14;99523.84;;;19.27;62.14
21234;BME280;10774;42.178;26.578;2023-04-21T11:14:42;99519.97;;;20.13;60.37
21234;BME280;10774;42.178;26.578;2023-04-21T11:17:12;99515.50;;;19.71;60.27
21234;BME280;10774;42.178;26.578;2023-04-21T11:19:38;99503.09;;;19.93;60.43
21234;BME280;10774;42.178;26.578;2023-04-21T11:22:04;99498.84;;;19.90;60.88
21234;BME280;10774;42.178;26.578;2023-04-21T11:24:32;99497.16;;;19.89;62.79
21234;BME280;10774;42.178;26.578;2023-04-21T11:26:58;99498.38;;;20.35;59.29
21234;BME280;10774;42.178;26.578;2023-04-21T11:29:27;99504.88;;;21.06;57.79
21234;BME280;10774;42.178;26.578;2023-04-21T11:31:55;99506.69;;;21.14;56.17
21234;BME280;10774;42.178;26.578;2023-04-21T11:34:25;99516.75;;;21.22;56.64
21234;BME280;10774;42.178;26.578;2023-04-21T11:36:51;99507.34;;;21.32;56.56
21234;BME280;10774;42.178;26.578;2023-04-21T11:39:17;99516.53;;;20.76;57.81
21234;BME280;10774;42.178;26.578;2023-04-21T11:41:47;99489.97;;;19.72;59.60
21234;BME280;10774;42.178;26.578;2023-04-21T11:44:28;99500.03;;;19.29;64.42
21234;BME280;10774;42.178;26.578;2023-04-21T11:46:54;99505.81;;;18.66;72.69
21234;BME280;10774;42.178;26.578;2023-04-21T11:49:23;99519.19;;;18.33;78.12
21234;BME280;10774;42.178;26.578;2023-04-21T11:51:49;99539.88;;;17.90;83.56
21234;BME280;10774;42.178;26.578;2023-04-21T11:54:16;99557.03;;;17.45;92.12
21234;BME280;10774;42.178;26.578;2023-04-21T11:56:45;99542.59;;;16.80;100.00
21234;BME280;10774;42.178;26.578;2023-04-21T11:59:13;99558.47;;;16.56;100.00
21234;BME280;10774;42.178;26.578;2023-04-21T12:01:47;99567.06;;;16.22;100.00
21234;BME280;10774;42.178;26.578;2023-04-21T12:04:20;99563.06;;;16.07;100.00
21234;BME280;10774;42.178;26.578;2023-04-21T12:06:55;99586.75;;;16.14;100.00
21234;BME280;10774;42.178;26.578;2023-04-21T12:09:21;99602.25;;;15.43;100.00
21234;BME280;10774;42.178;26.578;2023-04-21T12:11:51;99580.72;;;15.72;100.00
21234;BME280;10774;42.178;26.578;2023-04-21T12:14:18;99589.88;;;16.00;100.00
21234;BME280;10774;42.178;26.578;2023-04-21T12:16:56;99563.81;;;16.09;100.00
21234;BME280;10774;42.178;26.578;2023-04-21T12:22:06;99562.22;;;16.16;100.00
21234;BME280;10774;42.178;26.578;2023-04-21T12:24:31;99579.31;;;16.36;100.00
21234;BME280;10774;42.178;26.578;2023-04-21T12:26:57;99542.09;;;16.28;100.00
21234;BME280;10774;42.178;26.578;2023-04-21T12:29:22;99586.13;;;16.59;100.00
21234;BME280;10774;42.178;26.578;2023-04-21T12:31:47;99589.13;;;16.56;100.00
21234;BME280;10774;42.178;26.578;2023-04-21T12:34:13;99593.31;;;16.97;100.00
21234;BME280;10774;42.178;26.578;2023-04-21T12:36:38;99567.25;;;16.87;100.00
21234;BME280;10774;42.178;26.578;2023-04-21T12:39:04;99566.09;;;16.99;100.00
21234;BME280;10774;42.178;26.578;2023-04-21T12:41:31;99579.00;;;17.15;100.00
21234;BME280;10774;42.178;26.578;2023-04-21T12:44:01;99574.72;;;17.40;100.00
21234;BME280;10774;42.178;26.578;2023-04-21T12:46:27;99564.75;;;17.68;100.00
21234;BME280;10774;42.178;26.578;2023-04-21T12:48:56;99566.13;;;17.99;100.00
21234;BME280;10774;42.178;26.578;2023-04-21T12:51:21;99550.00;;;17.70;100.00
21234;BME280;10774;42.178;26.578;2023-04-21T12:53:52;99572.94;;;18.03;100.00
21234;BME280;10774;42.178;26.578;2023-04-21T12:56:17;99572.28;;;18.45;100.00
21234;BME280;10774;42.178;26.578;2023-04-21T12:58:43;99558.50;;;18.65;100.00